createdAt,value
2022-08-07T19:17:57.366Z,99618.65
2022-08-07T19:20:39.402Z,99623.31
2022-08-07T19:23:57.900Z,99626.50
2022-08-07T19:26:39.467Z,99631.04
2022-08-07T19:31:03.179Z,99632.20
2022-08-07T19:32:27.232Z,99630.29
2022-08-07T19:35:08.296Z,99629.58
2022-08-07T19:37:57.151Z,99634.56
2022-08-07T19:40:38.100Z,99638.68
2022-08-07T19:43:44.008Z,99638.55
2022-08-07T19:46:19.229Z,99641.55
2022-08-07T19:48:57.225Z,99643.26
2022-08-07T19:51:52.478Z,99642.92
2022-08-07T19:54:29.592Z,99642.48
2022-08-07T19:58:02.804Z,99646.17
2022-08-07T20:00:03.018Z,99648.29
2022-08-07T20:02:52.206Z,99645.45
2022-08-07T20:05:28.848Z,99646.80
2022-08-07T20:08:05.264Z,99644.08
2022-08-07T20:10:55.429Z,99644.95
2022-08-07T20:13:41.854Z,99647.06
2022-08-07T20:16:32.102Z,99647.75
2022-08-07T20:19:11.231Z,99644.52
2022-08-07T20:21:47.486Z,99636.48
2022-08-07T20:24:22.994Z,99643.34
2022-08-07T20:26:57.502Z,99647.14
2022-08-07T20:29:49.520Z,99646.45
2022-08-07T20:32:25.738Z,99648.45
2022-08-07T20:35:01.389Z,99645.91
2022-08-07T20:37:55.657Z,99644.03
2022-08-07T20:40:34.763Z,99648.55
2022-08-07T20:43:09.460Z,99647.72
2022-08-07T20:46:27.635Z,99645.58
2022-08-07T20:49:54.193Z,99647.15
2022-08-07T20:51:40.706Z,99646.64
2022-08-07T20:54:30.053Z,99643.83
2022-08-07T20:57:10.215Z,99642.67
2022-08-07T21:00:07.390Z,99640.73
2022-08-07T21:02:55.482Z,99646.59
2022-08-07T21:05:52.669Z,99642.50
2022-08-07T21:08:37.264Z,99648.41
2022-08-07T21:11:14.310Z,99642.71
2022-08-07T21:14:20.122Z,99647.96
2022-08-07T21:17:06.800Z,99651.14
2022-08-07T21:19:51.218Z,99660.69
2022-08-07T21:22:35.557Z,99665.52
2022-08-07T21:25:13.496Z,99662.77
2022-08-07T21:28:02.129Z,99664.16
2022-08-07T21:30:44.164Z,99665.69
2022-08-07T21:33:22.593Z,99662.38
2022-08-07T21:36:05.869Z,99664.81
2022-08-07T21:38:55.316Z,99664.48
2022-08-07T21:41:38.397Z,99667.35
2022-08-07T21:44:33.312Z,99666.70
2022-08-07T21:47:17.292Z,99665.31
2022-08-07T21:50:01.912Z,99664.55
2022-08-07T21:52:45.215Z,99665.08
2022-08-07T21:55:29.783Z,99668.05
2022-08-07T21:58:18.381Z,99674.48
2022-08-07T22:01:08.405Z,99673.09
2022-08-07T22:03:56.384Z,99679.39
2022-08-07T22:06:34.513Z,99679.73
2022-08-07T22:09:11.214Z,99681.45
2022-08-07T22:12:05.510Z,99676.30
2022-08-07T22:14:59.470Z,99678.33
2022-08-07T22:17:38.792Z,99682.00
2022-08-07T22:20:23.800Z,99679.59
2022-08-07T22:23:02.809Z,99678.52
2022-08-07T22:25:42.248Z,99679.74
2022-08-07T22:28:31.603Z,99677.00
2022-08-07T22:31:45.358Z,99675.23
2022-08-07T22:34:28.956Z,99678.77
2022-08-07T22:37:12.412Z,99676.83
2022-08-07T22:39:52.497Z,99671.84
2022-08-07T22:42:29.608Z,99669.66
2022-08-07T22:45:04.125Z,99674.06
2022-08-07T22:48:01.954Z,99671.00
2022-08-07T22:50:47.380Z,99667.54
2022-08-07T22:54:07.110Z,99663.60
2022-08-07T22:56:43.542Z,99664.34
2022-08-07T22:59:49.878Z,99662.86
2022-08-07T23:02:43.035Z,99660.42
2022-08-07T23:06:14.990Z,99656.29
2022-08-07T23:10:05.322Z,99658.41
2022-08-07T23:12:07.473Z,99657.98
2022-08-07T23:14:54.860Z,99659.69
2022-08-07T23:17:41.777Z,99661.23
2022-08-07T23:20:52.528Z,99659.43
2022-08-07T23:24:07.025Z,99653.98
2022-08-07T23:26:50.336Z,99649.44
2022-08-07T23:29:43.994Z,99651.27
2022-08-07T23:34:20.188Z,99652.42
2022-08-07T23:35:44.535Z,99650.30
2022-08-07T23:38:54.963Z,99653.52
2022-08-07T23:41:47.419Z,99654.83
2022-08-07T23:45:15.066Z,99657.30
2022-08-07T23:48:02.793Z,99658.44
2022-08-07T23:50:42.061Z,99656.94
2022-08-07T23:53:22.849Z,99656.29
2022-08-07T23:56:23.172Z,99659.38
2022-08-07T23:59:10.290Z,99659.20
